createdAt,value
2022-12-17T02:01:59.925Z,-7.76
2022-12-17T02:03:22.250Z,-7.87
2022-12-17T02:04:43.603Z,-7.89
2022-12-17T02:06:16.529Z,-7.84
2022-12-17T02:08:07.650Z,-7.84
2022-12-17T02:09:38.900Z,-7.69
2022-12-17T02:11:11.586Z,-7.50
2022-12-17T02:13:01.270Z,-7.33
2022-12-17T02:14:51.493Z,-7.25
2022-12-17T02:16:31.319Z,-7.18
2022-12-17T02:18:07.151Z,-7.06
2022-12-17T02:19:51.983Z,-7.06
2022-12-17T02:21:15.872Z,-7.15
2022-12-17T02:22:53.441Z,-7.18
2022-12-17T02:24:30.506Z,-7.21
2022-12-17T02:26:19.407Z,-7.36
2022-12-17T02:27:41.650Z,-7.40
2022-12-17T02:29:07.566Z,-7.32
2022-12-17T02:30:29.435Z,-7.14
2022-12-17T02:31:52.317Z,-7.18
2022-12-17T02:33:13.824Z,-7.13
2022-12-17T02:34:38.178Z,-7.16
2022-12-17T02:36:06.356Z,-7.34
2022-12-17T02:37:26.888Z,-7.31
2022-12-17T02:38:50.520Z,-7.24
2022-12-17T02:40:11.458Z,-7.35
2022-12-17T02:41:37.297Z,-7.37
2022-12-17T02:43:03.678Z,-7.30
2022-12-17T02:44:27.863Z,-7.17
2022-12-17T02:45:49.620Z,-6.96
2022-12-17T02:47:13.230Z,-7.04
2022-12-17T02:48:35.217Z,-7.02
2022-12-17T02:49:56.262Z,-6.98
2022-12-17T02:51:17.973Z,-7.09
2022-12-17T02:52:40.475Z,-7.01
2022-12-17T02:54:02.955Z,-6.90
2022-12-17T02:55:24.369Z,-6.93
2022-12-17T02:56:45.015Z,-6.99
2022-12-17T02:58:05.854Z,-6.91
2022-12-17T02:59:26.719Z,-6.84
2022-12-17T03:00:47.361Z,-6.71
2022-12-17T03:02:08.214Z,-6.73
2022-12-17T03:03:29.503Z,-6.80
2022-12-17T03:04:50.173Z,-6.73
2022-12-17T03:06:11.014Z,-6.68
2022-12-17T03:07:32.122Z,-6.66
2022-12-17T03:08:52.941Z,-6.56
2022-12-17T03:10:13.656Z,-6.54
2022-12-17T03:11:36.857Z,-6.60
2022-12-17T03:12:57.648Z,-6.49
2022-12-17T03:14:18.745Z,-6.33
2022-12-17T03:15:39.316Z,-6.32
2022-12-17T03:16:59.787Z,-6.39
2022-12-17T03:18:20.861Z,-6.46
2022-12-17T03:19:41.435Z,-6.52
2022-12-17T03:21:02.022Z,-6.41
2022-12-17T03:22:23.284Z,-6.21
2022-12-17T03:23:43.676Z,-6.19
2022-12-17T03:25:04.677Z,-6.32
2022-12-17T03:26:25.758Z,-6.32
2022-12-17T03:27:46.260Z,-6.30
2022-12-17T03:29:07.807Z,-6.24
2022-12-17T03:30:33.226Z,-6.18
2022-12-17T03:31:56.861Z,-6.16
2022-12-17T03:33:17.370Z,-6.13
2022-12-17T03:34:38.365Z,-6.07
2022-12-17T03:35:59.333Z,-5.93
2022-12-17T03:37:20.429Z,-5.89
2022-12-17T03:38:41.518Z,-5.92
2022-12-17T03:40:02.140Z,-5.94
2022-12-17T03:41:23.217Z,-5.90
2022-12-17T03:42:44.257Z,-5.85
2022-12-17T03:44:04.757Z,-5.76
2022-12-17T03:45:25.609Z,-5.78
2022-12-17T03:46:46.233Z,-5.87
2022-12-17T03:48:07.543Z,-6.00
2022-12-17T03:49:28.597Z,-5.94
2022-12-17T03:50:49.215Z,-5.86
2022-12-17T03:52:10.264Z,-5.78
2022-12-17T03:53:31.201Z,-5.76
2022-12-17T03:54:51.664Z,-5.82
2022-12-17T03:56:12.629Z,-5.60
2022-12-17T03:57:33.608Z,-5.66
2022-12-17T03:58:54.624Z,-5.80
2022-12-17T04:00:15.661Z,-5.74
2022-12-17T04:01:36.948Z,-5.74
2022-12-17T04:02:58.237Z,-5.73
2022-12-17T04:04:19.053Z,-5.73
2022-12-17T04:05:39.477Z,-5.77
2022-12-17T04:06:59.941Z,-5.89
2022-12-17T04:08:20.476Z,-5.74
2022-12-17T04:09:41.762Z,-5.73
2022-12-17T04:11:02.426Z,-5.63
2022-12-17T04:12:23.510Z,-5.71
2022-12-17T04:13:44.217Z,-5.78
2022-12-17T04:15:05.097Z,-5.85
2022-12-17T04:16:26.565Z,-5.69
2022-12-17T04:17:47.783Z,-5.84
2022-12-17T04:19:08.576Z,-5.75
2022-12-17T04:20:29.532Z,-5.73
2022-12-17T04:21:50.026Z,-5.78
2022-12-17T04:23:10.626Z,-5.79
2022-12-17T04:24:42.373Z,-5.90
2022-12-17T04:26:03.406Z,-6.06
2022-12-17T04:27:24.173Z,-5.95
2022-12-17T04:28:45.126Z,-6.20
2022-12-17T04:30:06.255Z,-5.93
2022-12-17T04:31:26.723Z,-5.76
2022-12-17T04:32:47.302Z,-5.77
2022-12-17T04:34:07.750Z,-5.77
2022-12-17T04:35:28.411Z,-5.79
2022-12-17T04:36:49.069Z,-5.78
2022-12-17T04:38:10.622Z,-5.75
2022-12-17T04:39:31.593Z,-5.66
2022-12-17T04:40:52.479Z,-5.57
2022-12-17T04:42:13.943Z,-5.74
2022-12-17T04:43:35.485Z,-6.03
2022-12-17T04:44:56.502Z,-6.05
2022-12-17T04:46:17.819Z,-6.16
2022-12-17T04:47:38.743Z,-6.10
2022-12-17T04:48:59.311Z,-5.95
2022-12-17T04:50:19.803Z,-6.00
2022-12-17T04:51:40.941Z,-5.98
2022-12-17T04:53:01.927Z,-6.02
2022-12-17T04:54:23.081Z,-6.05
2022-12-17T04:55:43.557Z,-5.98
2022-12-17T04:57:04.768Z,-5.99
2022-12-17T04:58:25.560Z,-5.92
2022-12-17T04:59:46.271Z,-5.90
2022-12-17T05:01:26.354Z,-5.84
2022-12-17T05:02:47.527Z,-5.82
2022-12-17T05:04:08.244Z,-5.78
2022-12-17T05:05:29.264Z,-5.77
2022-12-17T05:06:49.715Z,-5.95
2022-12-17T05:08:14.825Z,-6.06
2022-12-17T05:09:35.374Z,-6.04
2022-12-17T05:10:56.568Z,-6.11
2022-12-17T05:12:17.109Z,-6.14
2022-12-17T05:13:37.705Z,-6.11
2022-12-17T05:14:59.097Z,-6.52
2022-12-17T05:16:19.802Z,-6.49
2022-12-17T05:17:40.379Z,-6.56
2022-12-17T05:19:01.542Z,-6.43
2022-12-17T05:20:22.618Z,-6.47
2022-12-17T05:21:43.685Z,-6.50
2022-12-17T05:23:04.851Z,-6.59
2022-12-17T05:24:25.970Z,-6.59
2022-12-17T05:25:46.521Z,-6.51
2022-12-17T05:27:07.208Z,-6.61
2022-12-17T05:28:28.258Z,-6.60
2022-12-17T05:29:49.303Z,-6.32
2022-12-17T05:31:12.053Z,-6.32
2022-12-17T05:32:46.186Z,-6.26
2022-12-17T05:34:07.277Z,-6.57
2022-12-17T05:35:28.336Z,-6.61
2022-12-17T05:36:48.887Z,-6.64
2022-12-17T05:38:09.329Z,-6.70
2022-12-17T05:39:30.496Z,-6.76
2022-12-17T05:40:51.584Z,-6.71
2022-12-17T05:42:12.194Z,-6.30
2022-12-17T05:43:32.857Z,-6.28
2022-12-17T05:44:53.444Z,-6.24
2022-12-17T05:46:17.156Z,-6.38
2022-12-17T05:47:38.354Z,-6.34
2022-12-17T05:48:59.561Z,-6.35
2022-12-17T05:50:19.997Z,-6.22
2022-12-17T05:51:41.650Z,-6.31
2022-12-17T05:53:02.238Z,-6.39
2022-12-17T05:54:23.433Z,-6.60
2022-12-17T05:55:44.602Z,-6.64
2022-12-17T05:57:05.195Z,-6.41
2022-12-17T05:58:29.075Z,-6.46
2022-12-17T05:59:49.960Z,-6.42
2022-12-17T06:01:18.735Z,-6.44
2022-12-17T06:02:39.633Z,-6.53
2022-12-17T06:04:00.812Z,-6.59
2022-12-17T06:05:22.569Z,-6.53
2022-12-17T06:06:43.719Z,-6.45
2022-12-17T06:08:15.201Z,-6.52
2022-12-17T06:09:36.055Z,-6.37
2022-12-17T06:10:56.520Z,-6.42
2022-12-17T06:12:17.058Z,-6.43
2022-12-17T06:13:38.359Z,-6.45
2022-12-17T06:14:59.537Z,-6.41
2022-12-17T06:16:20.516Z,-6.42
2022-12-17T06:17:41.787Z,-6.41
2022-12-17T06:19:02.689Z,-6.56
2022-12-17T06:20:23.835Z,-6.63
2022-12-17T06:21:44.990Z,-6.71
2022-12-17T06:23:06.015Z,-6.52
2022-12-17T06:24:26.943Z,-6.67
2022-12-17T06:25:47.728Z,-6.69
2022-12-17T06:27:08.803Z,-6.57
2022-12-17T06:28:29.755Z,-6.66
2022-12-17T06:29:50.978Z,-6.65
2022-12-17T06:31:13.192Z,-6.79
2022-12-17T06:32:33.992Z,-6.84
2022-12-17T06:33:55.215Z,-6.92
2022-12-17T06:35:16.261Z,-7.02
2022-12-17T06:36:36.975Z,-6.96
2022-12-17T06:37:58.526Z,-6.83
2022-12-17T06:39:19.763Z,-6.62
2022-12-17T06:40:41.427Z,-6.66
2022-12-17T06:42:04.574Z,-6.71
2022-12-17T06:43:27.168Z,-6.95
2022-12-17T06:44:47.729Z,-6.86
2022-12-17T06:46:10.228Z,-6.94
2022-12-17T06:47:31.588Z,-7.02
2022-12-17T06:48:52.389Z,-6.81
2022-12-17T06:50:12.937Z,-6.85
2022-12-17T06:51:33.368Z,-6.85
2022-12-17T06:52:54.450Z,-6.85
2022-12-17T06:54:15.362Z,-6.92
2022-12-17T06:55:35.987Z,-7.14
2022-12-17T06:56:56.506Z,-7.15
2022-12-17T06:58:18.549Z,-7.11
2022-12-17T06:59:39.545Z,-7.24
2022-12-17T07:01:00.634Z,-7.32
2022-12-17T07:02:21.491Z,-7.31
2022-12-17T07:03:42.174Z,-7.23
2022-12-17T07:05:02.845Z,-7.20
2022-12-17T07:06:23.857Z,-7.29
2022-12-17T07:07:44.862Z,-7.31
2022-12-17T07:09:06.054Z,-7.30
2022-12-17T07:10:27.735Z,-7.28
2022-12-17T07:11:48.812Z,-7.32
2022-12-17T07:13:09.409Z,-7.30
2022-12-17T07:14:30.216Z,-7.31
2022-12-17T07:15:50.953Z,-7.25
2022-12-17T07:17:11.903Z,-7.25
2022-12-17T07:18:32.921Z,-7.21
2022-12-17T07:19:54.081Z,-7.08
2022-12-17T07:21:14.575Z,-7.05
2022-12-17T07:22:34.985Z,-7.10
2022-12-17T07:23:56.151Z,-7.13
2022-12-17T07:25:17.716Z,-7.00
2022-12-17T07:26:39.305Z,-6.93
2022-12-17T07:27:59.735Z,-7.06
2022-12-17T07:29:23.431Z,-7.03
2022-12-17T07:30:44.404Z,-7.12
2022-12-17T07:32:05.636Z,-7.08
2022-12-17T07:33:28.509Z,-7.08
2022-12-17T07:34:49.859Z,-7.21
2022-12-17T07:36:12.105Z,-7.24
2022-12-17T07:37:33.301Z,-7.20
2022-12-17T07:38:53.828Z,-7.25
2022-12-17T07:40:14.473Z,-7.16
2022-12-17T07:41:34.997Z,-7.15
2022-12-17T07:42:58.512Z,-7.18
2022-12-17T07:44:19.700Z,-6.99
2022-12-17T07:45:41.202Z,-7.25
2022-12-17T07:47:02.294Z,-7.15
2022-12-17T07:48:23.144Z,-7.00
2022-12-17T07:49:44.089Z,-7.01
2022-12-17T07:51:09.238Z,-6.95
2022-12-17T07:52:30.261Z,-6.90
2022-12-17T07:53:52.094Z,-6.99
2022-12-17T07:55:18.073Z,-6.94
2022-12-17T07:56:39.470Z,-6.86
2022-12-17T07:58:00.571Z,-6.95
2022-12-17T07:59:22.325Z,-6.81
2022-12-17T08:00:48.951Z,-6.60
2022-12-17T08:02:10.192Z,-6.67
2022-12-17T08:03:42.731Z,-6.81
2022-12-17T08:05:03.629Z,-7.08
2022-12-17T08:06:24.651Z,-7.03
2022-12-17T08:07:45.747Z,-6.94
2022-12-17T08:09:13.877Z,-6.91
2022-12-17T08:10:35.070Z,-7.14
2022-12-17T08:11:56.145Z,-7.13
2022-12-17T08:13:36.302Z,-7.10
2022-12-17T08:14:57.492Z,-7.31
2022-12-17T08:16:18.922Z,-7.09
2022-12-17T08:17:40.040Z,-7.04
2022-12-17T08:19:01.080Z,-7.22
2022-12-17T08:20:22.258Z,-7.17
2022-12-17T08:21:43.373Z,-7.16
2022-12-17T08:23:04.452Z,-7.21
2022-12-17T08:24:25.568Z,-7.11
2022-12-17T08:25:46.528Z,-7.11
2022-12-17T08:27:07.651Z,-7.20
2022-12-17T08:28:49.470Z,-7.13
2022-12-17T08:30:09.170Z,-6.95
2022-12-17T08:31:29.784Z,-6.99
2022-12-17T08:32:50.839Z,-6.92
2022-12-17T08:34:14.436Z,-6.85
2022-12-17T08:35:35.603Z,-6.85
2022-12-17T08:36:56.324Z,-6.91
2022-12-17T08:38:26.118Z,-6.95
2022-12-17T08:39:47.256Z,-6.91
2022-12-17T08:41:08.486Z,-6.77
2022-12-17T08:42:29.553Z,-6.67
2022-12-17T08:43:50.054Z,-6.48
2022-12-17T08:45:10.661Z,-6.56
2022-12-17T08:46:31.366Z,-6.81
2022-12-17T08:47:52.787Z,-6.83
2022-12-17T08:49:13.735Z,-6.76
2022-12-17T08:50:34.874Z,-6.72
2022-12-17T08:51:55.902Z,-6.67
2022-12-17T08:53:21.630Z,-6.68
2022-12-17T08:54:42.221Z,-6.73
2022-12-17T08:56:03.246Z,-6.81
2022-12-17T08:57:31.535Z,-6.86
2022-12-17T08:58:58.690Z,-6.84
2022-12-17T09:00:20.372Z,-6.85
2022-12-17T09:01:41.059Z,-6.65
2022-12-17T09:03:02.419Z,-6.47
2022-12-17T09:04:23.631Z,-6.51
2022-12-17T09:05:44.681Z,-6.46
2022-12-17T09:07:05.298Z,-6.60
2022-12-17T09:08:26.411Z,-6.46
2022-12-17T09:09:46.907Z,-6.36
2022-12-17T09:11:07.934Z,-6.16
2022-12-17T09:12:28.781Z,-6.33
2022-12-17T09:13:49.983Z,-6.38
2022-12-17T09:15:10.628Z,-6.50
2022-12-17T09:16:31.651Z,-6.54
2022-12-17T09:17:52.405Z,-6.55
2022-12-17T09:19:12.962Z,-6.62
2022-12-17T09:20:33.968Z,-6.76
2022-12-17T09:21:54.737Z,-6.68
2022-12-17T09:23:15.808Z,-6.56
2022-12-17T09:24:36.305Z,-6.65
2022-12-17T09:25:58.346Z,-6.30
2022-12-17T09:27:19.577Z,-6.30
2022-12-17T09:28:40.815Z,-6.39
2022-12-17T09:30:01.758Z,-6.25
2022-12-17T09:31:23.362Z,-6.09
2022-12-17T09:32:44.357Z,-6.06
2022-12-17T09:34:05.500Z,-6.09
2022-12-17T09:35:26.594Z,-6.11
2022-12-17T09:36:51.154Z,-6.27
2022-12-17T09:38:13.496Z,-6.40
2022-12-17T09:39:34.245Z,-6.50
2022-12-17T09:40:55.515Z,-6.36
2022-12-17T09:42:46.778Z,-5.88
2022-12-17T09:44:24.335Z,-5.79
2022-12-17T09:45:54.565Z,-6.31
2022-12-17T09:47:32.314Z,-6.20
2022-12-17T09:49:19.141Z,-6.08
2022-12-17T09:50:40.291Z,-5.92
2022-12-17T09:52:00.748Z,-6.03
2022-12-17T09:53:32.426Z,-6.10
2022-12-17T09:55:02.183Z,-5.99
2022-12-17T09:56:25.191Z,-5.91
2022-12-17T09:57:50.803Z,-5.95
2022-12-17T09:59:11.845Z,-5.75
2022-12-17T10:00:36.822Z,-5.61
2022-12-17T10:02:00.688Z,-5.34
2022-12-17T10:03:23.110Z,-5.28
2022-12-17T10:04:59.940Z,-5.01
2022-12-17T10:06:28.446Z,-4.98
2022-12-17T10:07:54.793Z,-5.28
2022-12-17T10:09:20.637Z,-4.93
2022-12-17T10:10:45.133Z,-5.03
2022-12-17T10:12:06.136Z,-5.14
2022-12-17T10:13:30.912Z,-4.87
2022-12-17T10:14:51.881Z,-4.66
2022-12-17T10:16:12.958Z,-4.78
2022-12-17T10:17:42.396Z,-4.66
2022-12-17T10:19:04.576Z,-4.79
2022-12-17T10:20:52.335Z,-4.54
2022-12-17T10:22:12.897Z,-4.45
2022-12-17T10:23:48.294Z,-4.48
2022-12-17T10:25:08.749Z,-4.86
2022-12-17T10:26:35.568Z,-4.61
2022-12-17T10:27:56.550Z,-4.47
2022-12-17T10:29:32.297Z,-4.79
2022-12-17T10:30:53.404Z,-4.81
2022-12-17T10:32:17.619Z,-4.89
2022-12-17T10:33:39.730Z,-4.75
2022-12-17T10:35:05.807Z,-4.57
2022-12-17T10:36:40.440Z,-4.54
2022-12-17T10:38:01.469Z,-4.73
2022-12-17T10:39:23.636Z,-4.87
2022-12-17T10:40:47.515Z,-5.03
2022-12-17T10:42:08.807Z,-4.98
2022-12-17T10:43:44.117Z,-5.00
2022-12-17T10:45:05.063Z,-5.00
2022-12-17T10:46:25.650Z,-5.08
2022-12-17T10:47:47.160Z,-4.91
2022-12-17T10:49:11.327Z,-4.73
2022-12-17T10:50:41.335Z,-4.78
2022-12-17T10:52:02.582Z,-4.61
2022-12-17T10:53:36.115Z,-4.42
2022-12-17T10:54:57.564Z,-4.60
2022-12-17T10:56:19.076Z,-4.78
2022-12-17T10:57:48.097Z,-4.94
2022-12-17T10:59:11.630Z,-4.79
2022-12-17T11:00:51.014Z,-4.64
2022-12-17T11:02:16.429Z,-4.23
2022-12-17T11:03:48.501Z,-4.36
2022-12-17T11:05:11.712Z,-4.18
2022-12-17T11:06:42.287Z,-4.69
2022-12-17T11:08:03.722Z,-4.91
2022-12-17T11:09:25.322Z,-4.77
2022-12-17T11:11:01.657Z,-4.67
2022-12-17T11:12:34.066Z,-4.72
2022-12-17T11:14:05.665Z,-4.72
2022-12-17T11:15:41.651Z,-4.72
2022-12-17T11:17:13.748Z,-4.90
2022-12-17T11:18:48.966Z,-4.83
2022-12-17T11:20:14.071Z,-4.92
2022-12-17T11:21:48.362Z,-4.96
2022-12-17T11:23:12.929Z,-4.86
2022-12-17T11:25:00.627Z,-4.78
2022-12-17T11:26:37.430Z,-4.37
2022-12-17T11:28:05.567Z,-4.34
2022-12-17T11:29:32.323Z,-4.14
2022-12-17T11:31:07.487Z,-4.52
2022-12-17T11:32:52.254Z,-4.51
2022-12-17T11:34:38.217Z,-4.70
2022-12-17T11:36:10.433Z,-4.39
2022-12-17T11:37:40.185Z,-4.38
2022-12-17T11:39:11.825Z,-4.25
2022-12-17T11:41:01.326Z,-3.91
2022-12-17T11:42:34.586Z,-4.09
2022-12-17T11:44:14.507Z,-3.68
2022-12-17T11:45:42.259Z,-3.62
2022-12-17T11:47:22.204Z,-3.33
2022-12-17T11:48:56.611Z,-3.64
2022-12-17T11:50:35.445Z,-3.64
2022-12-17T11:52:14.513Z,-3.31
2022-12-17T11:53:44.280Z,-3.44
2022-12-17T11:55:23.048Z,-3.29
2022-12-17T11:56:56.703Z,-3.66
2022-12-17T11:58:24.282Z,-3.75
2022-12-17T11:59:58.161Z,-4.12
2022-12-17T12:02:16.611Z,-4.26
2022-12-17T12:04:02.293Z,-4.07
2022-12-17T12:06:00.714Z,-4.25
2022-12-17T12:07:39.532Z,-3.99
2022-12-17T12:09:03.198Z,-3.88
2022-12-17T12:10:36.840Z,-3.90
2022-12-17T12:12:08.547Z,-3.79
2022-12-17T12:13:45.120Z,-4.08
2022-12-17T12:15:14.845Z,-4.06
2022-12-17T12:16:45.109Z,-3.90
2022-12-17T12:18:21.775Z,-3.87
2022-12-17T12:20:03.163Z,-3.80
2022-12-17T12:21:58.572Z,-3.77
2022-12-17T12:23:41.946Z,-3.87
2022-12-17T12:25:36.086Z,-3.48
2022-12-17T12:27:22.160Z,-3.49
2022-12-17T12:28:42.627Z,-3.36
2022-12-17T12:30:39.309Z,-3.59
2022-12-17T12:32:12.046Z,-3.45
2022-12-17T12:34:05.696Z,-3.52
2022-12-17T12:35:33.672Z,-3.36
2022-12-17T12:36:56.312Z,-3.19
2022-12-17T12:38:18.953Z,-3.14
2022-12-17T12:39:55.296Z,-3.40
2022-12-17T12:41:35.443Z,-3.44
2022-12-17T12:43:19.725Z,-3.64
2022-12-17T12:45:03.993Z,-3.71
2022-12-17T12:46:54.059Z,-3.42
2022-12-17T12:48:52.444Z,-2.99
2022-12-17T12:50:22.018Z,-2.84
2022-12-17T12:51:46.668Z,-3.00
2022-12-17T12:53:07.695Z,-3.15
2022-12-17T12:54:50.685Z,-3.58
2022-12-17T12:56:11.620Z,-3.61
2022-12-17T12:57:48.874Z,-3.59
2022-12-17T12:59:10.087Z,-3.57
2022-12-17T13:00:53.182Z,-3.35
2022-12-17T13:02:14.173Z,-3.57
2022-12-17T13:04:16.275Z,-3.60
2022-12-17T13:05:43.836Z,-3.51
2022-12-17T13:06:56.933Z,-3.69
2022-12-17T13:08:03.332Z,-4.01
2022-12-17T13:09:17.961Z,-3.80
2022-12-17T13:10:29.605Z,-3.73
2022-12-17T13:11:38.122Z,-3.98
2022-12-17T13:12:49.653Z,-3.93
2022-12-17T13:13:56.515Z,-4.07
2022-12-17T13:15:06.681Z,-3.94
2022-12-17T13:16:33.097Z,-3.91
2022-12-17T13:17:46.178Z,-3.82
2022-12-17T13:18:48.821Z,-3.84
2022-12-17T13:19:56.904Z,-3.94
2022-12-17T13:21:04.734Z,-3.73
2022-12-17T13:22:23.387Z,-4.02
2022-12-17T13:23:30.757Z,-4.00
2022-12-17T13:24:33.112Z,-4.06
2022-12-17T13:25:35.889Z,-4.14
2022-12-17T13:26:40.868Z,-4.01
2022-12-17T13:27:43.661Z,-3.80
2022-12-17T13:29:19.366Z,-4.14
2022-12-17T13:30:31.054Z,-4.20
2022-12-17T13:31:48.056Z,-4.09
2022-12-17T13:33:08.960Z,-3.94
2022-12-17T13:34:19.970Z,-3.86
2022-12-17T13:35:30.389Z,-4.01
2022-12-17T13:37:07.863Z,-4.01
2022-12-17T13:38:35.120Z,-4.08
2022-12-17T13:39:45.632Z,-4.03
2022-12-17T13:41:13.112Z,-3.87
2022-12-17T13:42:27.812Z,-3.86
2022-12-17T13:43:38.516Z,-3.85
2022-12-17T13:44:45.776Z,-3.86
2022-12-17T13:45:50.435Z,-4.12
2022-12-17T13:46:54.319Z,-4.15
2022-12-17T13:47:58.802Z,-4.11
2022-12-17T13:49:16.099Z,-4.33
2022-12-17T13:50:37.174Z,-4.12
2022-12-17T13:51:39.506Z,-4.22
2022-12-17T13:52:41.769Z,-4.30
2022-12-17T13:53:52.913Z,-4.39
2022-12-17T13:55:08.050Z,-4.46
2022-12-17T13:56:10.451Z,-4.32
2022-12-17T13:57:18.805Z,-4.07
2022-12-17T13:58:27.621Z,-4.11
2022-12-17T13:59:30.126Z,-3.89
2022-12-17T14:00:32.769Z,-4.34
2022-12-17T14:01:45.552Z,-4.40
2022-12-17T14:02:48.907Z,-4.34
2022-12-17T14:04:06.253Z,-4.33
2022-12-17T14:05:24.180Z,-4.42
2022-12-17T14:06:34.125Z,-4.50
2022-12-17T14:07:39.316Z,-4.44
2022-12-17T14:08:42.332Z,-4.36
2022-12-17T14:09:44.669Z,-4.44
2022-12-17T14:11:14.448Z,-4.52
2022-12-17T14:12:22.029Z,-4.50
2022-12-17T14:13:25.621Z,-4.69
2022-12-17T14:14:33.710Z,-4.73
2022-12-17T14:15:36.733Z,-4.67
2022-12-17T14:16:42.824Z,-4.53
2022-12-17T14:17:50.686Z,-4.60
2022-12-17T14:18:57.164Z,-4.66
2022-12-17T14:20:05.155Z,-4.68
2022-12-17T14:21:09.724Z,-4.76
2022-12-17T14:22:32.373Z,-4.81
2022-12-17T14:23:34.647Z,-4.89
2022-12-17T14:24:36.900Z,-4.78
2022-12-17T14:25:41.049Z,-4.73
2022-12-17T14:26:52.110Z,-4.83
2022-12-17T14:28:04.287Z,-4.98
2022-12-17T14:29:14.028Z,-4.99
2022-12-17T14:30:46.117Z,-4.90
2022-12-17T14:38:02.842Z,-4.95
2022-12-17T14:39:17.130Z,-4.94
2022-12-17T14:40:19.855Z,-4.96
2022-12-17T14:41:41.566Z,-4.89
2022-12-17T14:42:43.978Z,-4.89
2022-12-17T14:43:46.340Z,-4.81
2022-12-17T14:45:03.192Z,-4.89
2022-12-17T14:46:20.682Z,-4.81
2022-12-17T14:47:36.515Z,-4.86
2022-12-17T14:48:57.436Z,-4.85
2022-12-17T14:50:17.870Z,-5.01
2022-12-17T14:51:28.207Z,-5.12
2022-12-17T14:52:48.751Z,-5.07
2022-12-17T14:53:51.093Z,-5.05
2022-12-17T14:54:53.457Z,-5.12
2022-12-17T14:55:57.319Z,-5.14
2022-12-17T14:57:00.434Z,-5.18
2022-12-17T14:58:11.495Z,-5.18
2022-12-17T14:59:33.624Z,-5.20
2022-12-17T15:00:45.092Z,-5.21
2022-12-17T15:01:51.339Z,-5.30
2022-12-17T15:02:56.586Z,-5.40
2022-12-17T15:03:59.365Z,-5.37
2022-12-17T15:05:02.740Z,-5.41
2022-12-17T15:06:08.061Z,-5.37
2022-12-17T15:07:18.056Z,-5.34
2022-12-17T15:08:21.726Z,-5.36
2022-12-17T15:09:24.445Z,-5.38
2022-12-17T15:10:26.664Z,-5.37
2022-12-17T15:11:29.065Z,-5.40
2022-12-17T15:12:31.316Z,-5.44
2022-12-17T15:13:33.824Z,-5.44
2022-12-17T15:14:36.084Z,-5.42
2022-12-17T15:15:38.365Z,-5.32
2022-12-17T15:16:41.114Z,-5.30
2022-12-17T15:17:44.281Z,-5.41
2022-12-17T15:18:46.544Z,-5.36
2022-12-17T15:19:55.629Z,-5.44
2022-12-17T15:20:58.346Z,-5.56
2022-12-17T15:22:00.555Z,-5.60
2022-12-17T15:23:02.891Z,-5.62
2022-12-17T15:24:07.088Z,-5.60
2022-12-17T15:25:15.863Z,-5.63
2022-12-17T15:26:19.574Z,-5.66
2022-12-17T15:27:21.842Z,-5.66
2022-12-17T15:28:26.779Z,-5.64
2022-12-17T15:29:29.055Z,-5.66
2022-12-17T15:30:31.284Z,-5.67
2022-12-17T15:31:35.662Z,-5.70
2022-12-17T15:32:38.464Z,-5.71
2022-12-17T15:33:41.473Z,-5.69
2022-12-17T15:34:45.904Z,-5.70
2022-12-17T15:35:48.201Z,-5.66
2022-12-17T15:36:50.463Z,-5.69
2022-12-17T15:37:52.918Z,-5.75
2022-12-17T15:38:55.151Z,-5.80
2022-12-17T15:39:57.428Z,-5.82
2022-12-17T15:41:00.872Z,-5.76
2022-12-17T15:42:21.914Z,-5.79
2022-12-17T15:43:24.189Z,-5.84
2022-12-17T15:44:26.660Z,-5.71
2022-12-17T15:45:29.109Z,-5.73
2022-12-17T15:46:31.365Z,-5.70
2022-12-17T15:47:33.627Z,-5.77
2022-12-17T15:48:37.166Z,-5.74
2022-12-17T15:49:39.592Z,-5.81
2022-12-17T15:50:44.591Z,-5.76
2022-12-17T15:51:46.885Z,-5.82
2022-12-17T15:52:49.069Z,-5.86
2022-12-17T15:53:51.373Z,-5.92
2022-12-17T15:54:53.618Z,-5.92
2022-12-17T15:56:03.396Z,-5.91
2022-12-17T15:57:05.684Z,-5.95
2022-12-17T15:58:11.403Z,-5.93
2022-12-17T15:59:13.707Z,-5.91
2022-12-17T16:00:16.221Z,-5.91
2022-12-17T16:01:19.784Z,-5.91
2022-12-17T16:02:22.372Z,-5.97
2022-12-17T16:03:24.867Z,-5.97
2022-12-17T16:04:27.154Z,-6.03
2022-12-17T16:05:29.536Z,-5.96
2022-12-17T16:06:33.539Z,-6.06
2022-12-17T16:07:36.968Z,-6.10
2022-12-17T16:08:42.277Z,-6.19
2022-12-17T16:09:47.508Z,-6.26
2022-12-17T16:10:49.683Z,-6.30
2022-12-17T16:11:55.382Z,-6.33
2022-12-17T16:12:57.992Z,-6.37
2022-12-17T16:14:00.615Z,-6.39
2022-12-17T16:15:03.471Z,-6.41
2022-12-17T16:16:06.964Z,-6.46
2022-12-17T16:17:09.244Z,-6.53
2022-12-17T16:18:11.426Z,-6.61
2022-12-17T16:19:13.667Z,-6.64
2022-12-17T16:20:18.638Z,-6.60
2022-12-17T16:21:20.932Z,-6.56
2022-12-17T16:22:27.710Z,-6.60
2022-12-17T16:23:30.338Z,-6.65
2022-12-17T16:24:32.597Z,-6.61
2022-12-17T16:25:34.799Z,-6.64
2022-12-17T16:26:39.276Z,-6.58
2022-12-17T16:27:41.484Z,-6.44
2022-12-17T16:28:49.253Z,-6.53
2022-12-17T16:29:51.578Z,-6.51
2022-12-17T16:31:05.540Z,-6.47
2022-12-17T16:32:07.935Z,-6.58
2022-12-17T16:33:10.273Z,-6.49
2022-12-17T16:34:13.800Z,-6.44
2022-12-17T16:35:16.134Z,-6.45
2022-12-17T16:36:20.597Z,-6.42
2022-12-17T16:37:22.858Z,-6.43
2022-12-17T16:38:25.035Z,-6.42
2022-12-17T16:39:28.282Z,-6.42
2022-12-17T16:40:30.777Z,-6.45
2022-12-17T16:41:33.685Z,-6.45
2022-12-17T16:42:36.248Z,-6.50
2022-12-17T16:43:38.995Z,-6.47
2022-12-17T16:44:43.653Z,-6.49
2022-12-17T16:45:51.429Z,-6.49
2022-12-17T16:46:53.924Z,-6.44
2022-12-17T16:47:56.253Z,-6.44
2022-12-17T16:49:03.705Z,-6.48
2022-12-17T16:50:06.290Z,-6.50
2022-12-17T16:51:27.906Z,-6.46
2022-12-17T16:52:32.065Z,-6.54
2022-12-17T16:53:34.788Z,-6.47
2022-12-17T16:54:37.116Z,-6.40
2022-12-17T16:55:44.740Z,-6.42
2022-12-17T16:56:47.457Z,-6.39
2022-12-17T16:57:49.738Z,-6.30
2022-12-17T16:58:52.584Z,-6.27
2022-12-17T16:59:54.823Z,-6.28
2022-12-17T17:00:57.071Z,-6.23
2022-12-17T17:02:00.281Z,-6.26
2022-12-17T17:03:04.201Z,-6.20
2022-12-17T17:04:08.934Z,-6.21
2022-12-17T17:05:11.281Z,-6.22
2022-12-17T17:06:13.886Z,-6.17
2022-12-17T17:07:16.085Z,-6.15
2022-12-17T17:08:20.891Z,-6.15
2022-12-17T17:09:24.815Z,-6.09
2022-12-17T17:10:27.685Z,-6.14
2022-12-17T17:11:29.873Z,-6.02
2022-12-17T17:12:32.262Z,-6.08
2022-12-17T17:13:34.783Z,-6.13
2022-12-17T17:14:36.995Z,-6.08
2022-12-17T17:15:39.320Z,-6.12
2022-12-17T17:16:41.599Z,-6.12
2022-12-17T17:17:54.471Z,-6.00
2022-12-17T17:18:58.533Z,-5.97
2022-12-17T17:20:00.830Z,-6.00
2022-12-17T17:21:34.453Z,-5.93
2022-12-17T17:22:36.683Z,-5.80
2022-12-17T17:23:39.002Z,-5.77
2022-12-17T17:24:41.234Z,-5.80
2022-12-17T17:25:57.989Z,-5.74
2022-12-17T17:27:00.900Z,-5.71
2022-12-17T17:28:03.171Z,-5.83
2022-12-17T17:29:06.068Z,-5.79
2022-12-17T17:30:08.890Z,-5.97
2022-12-17T17:31:13.823Z,-6.06
2022-12-17T17:32:16.177Z,-6.13
2022-12-17T17:33:18.444Z,-6.17
2022-12-17T17:34:20.867Z,-6.18
2022-12-17T17:35:23.097Z,-6.18
2022-12-17T17:36:28.658Z,-6.26
2022-12-17T17:37:31.059Z,-6.33
2022-12-17T17:38:35.052Z,-6.30
2022-12-17T17:39:37.526Z,-6.30
2022-12-17T17:40:39.775Z,-6.36
2022-12-17T17:41:42.043Z,-6.46
2022-12-17T17:42:48.757Z,-6.42
2022-12-17T17:43:55.665Z,-6.53
2022-12-17T17:44:57.957Z,-6.58
2022-12-17T17:46:09.171Z,-6.59
2022-12-17T17:47:11.405Z,-6.54
2022-12-17T17:48:13.748Z,-6.56
2022-12-17T17:49:16.221Z,-6.56
2022-12-17T17:50:18.469Z,-6.56
2022-12-17T17:51:59.840Z,-6.57
2022-12-17T17:52:52.076Z,-6.60
2022-12-17T17:53:55.335Z,-6.56
2022-12-17T17:54:57.618Z,-6.58
2022-12-17T17:56:27.035Z,-6.61
2022-12-17T17:57:29.401Z,-6.65
2022-12-17T17:58:32.318Z,-6.73
2022-12-17T17:59:34.670Z,-6.82
2022-12-17T18:00:37.650Z,-6.82
2022-12-17T18:01:46.739Z,-6.82
2022-12-17T18:02:49.234Z,-6.82
2022-12-17T18:03:53.052Z,-6.74
2022-12-17T18:04:55.267Z,-6.75
2022-12-17T18:06:02.129Z,-6.69
2022-12-17T18:08:29.596Z,-6.71
2022-12-17T18:09:31.819Z,-6.78
2022-12-17T18:10:34.168Z,-6.79
2022-12-17T18:11:37.894Z,-6.70
2022-12-17T18:12:58.358Z,-6.80
2022-12-17T18:14:01.731Z,-6.80
2022-12-17T18:15:19.583Z,-6.89
2022-12-17T18:16:35.330Z,-6.82
2022-12-17T18:17:37.628Z,-6.95
2022-12-17T18:18:40.749Z,-6.90
2022-12-17T18:19:43.535Z,-6.91
2022-12-17T18:20:45.769Z,-6.89
2022-12-17T18:21:48.875Z,-6.93
2022-12-17T18:22:51.119Z,-6.88
2022-12-17T18:24:01.690Z,-6.76
2022-12-17T18:25:05.332Z,-6.71
2022-12-17T18:26:21.070Z,-6.67
2022-12-17T18:27:23.297Z,-6.76
2022-12-17T18:28:25.500Z,-6.84
2022-12-17T18:29:28.780Z,-6.72
2022-12-17T18:30:30.992Z,-6.77
2022-12-17T18:31:33.260Z,-6.84
2022-12-17T18:32:35.585Z,-6.90
2022-12-17T18:33:40.288Z,-6.86
2022-12-17T18:34:42.827Z,-6.82
2022-12-17T18:35:46.057Z,-6.83
2022-12-17T18:36:49.627Z,-6.80
2022-12-17T18:37:52.219Z,-6.67
2022-12-17T18:39:02.836Z,-6.65
2022-12-17T18:40:06.763Z,-6.58
2022-12-17T18:41:32.860Z,-6.57
2022-12-17T18:42:53.921Z,-6.49
2022-12-17T18:43:58.696Z,-6.37
2022-12-17T18:45:01.022Z,-6.44
2022-12-17T18:46:04.547Z,-6.41
2022-12-17T18:47:07.120Z,-6.57
2022-12-17T18:48:09.541Z,-6.55
2022-12-17T18:49:14.017Z,-6.54
2022-12-17T18:50:16.294Z,-6.55
2022-12-17T18:51:18.511Z,-6.64